Aeroporto :
LOGIN :

Iscrizione | Disclaimer

   EN    FR    IT 

 










Sommario :    VFR   VFR Marginale   IFR   IFR Intensivo   IFR Molto Intensivo
Visibilità : 
Base nubi : 
>= 8 km
>= 3000ft
5 / 8 km
1000 / 3000 ft
1500m / 5 km
500 / 1000 ft
800 / 1500m
200 / 500 ft
< 800m
< 200 ft
Simboli :   Temporali  Nebbia  Neve Forte  Precipitazioni Forti  Vento > 20 kt
SIGMETs :   Varie  Temporali  Ghiacco  Turbolenza  Onda orograficha  Ceneri Vulcaniche






- Altitudine del aeroporto : 665 ft
- Codice IATA : NOC


EIKN - Connaught / Knock- Ireland West

ULTIMO METAR :
  • 201830Z 25017KT 9999 FEW020CB SCT040 04/01 Q1011 NOSIG

METARs OBSOLETI :
  • 201800Z 25016KT 9999 SCT020CB SCT025 BKN038 04/01 Q1011 NOSIG
  • 201730Z 26016KT 9999 -SHRA SCT020CB SCT025 BKN040 04/01 Q1010 NOSIG
  • 201700Z 26017KT 9999 FEW020CB SCT035 04/02 Q1010 NOSIG
  • 201630Z 26020G31KT 9000 -SHRA FEW016 SCT020CB BKN045 04/01 Q1009 NOSIG
  • 201600Z 26024KT 9999 FEW016 FEW020CB 04/02 Q1008 NOSIG

TAF TAF EIKN
Valido dal 20 a 18 ore il 21 a 18 ore UTC


201700Z 2018/2118 26018G28KT 9999 FEW010 SCT025
TEMPO 2018/2019 -SHRA FEW018CB
BECMG 2020/2022 22014KT
BECMG 2022/2024 22018G28KT BKN012
BECMG 2100/2102 22023G38KT -RA SCT007 BKN012
BECMG 2102/2104 5000 SCT004 BKN007
TEMPO 2102/2115 2000 -RADZ BKN004
PROB30
TEMPO 2107/2115 1200 RADZ BR BKN002
PROB30
TEMPO 2115/2118 0500 RADZ FG BKN002



MetMap, La meteo Aeronautica in un colpo d'occhio ! - Copyright ORBIFLY Dicembre 2007 - Disclaimer

ORBIFLY MET'MAP TEAM :

Programmazione e sviluppo : Alexandra Zaïnal
Concezione : Baudouin d'Aumeries
Aiuto per la programmazione : Marc-Olivier Méhu
Supporto tecnico e logistico : Manuel Goepfert
Aiuto per la traduzione : Arnaldo La Scala

Contatto : metmap@orbifly.com




FONTI E CREDITI :

   NOAA